| time (UTC) | temp F | wind direction | speed knots | gust knots | rain 1hr in | rain 24hr in | rain mn in | humidity % | barometer mb |
| 20260906102810 | 67 | 22 | 0.0 | 0.0 | 0.00 | 0.00 | 0.00 | 95 | 1017.9 |
| 20260906101812 | 67 | 22 | 0.0 | 0.0 | 0.00 | 0.00 | 0.00 | 96 | 1017.9 |
| 20260906100811 | 67 | 22 | 0.0 | 0.0 | 0.00 | 0.00 | 0.00 | 95 | 1018.0 |
| 20260906095810 | 67 | 22 | 0.0 | 0.0 | 0.00 | 0.00 | 0.00 | 96 | 1018.0 |
| 20260906094810 | 67 | 22 | 0.0 | 0.0 | 0.00 | 0.00 | 0.00 | 96 | 1018.1 |
| 20260906093827 | 67 | 22 | 0.0 | 0.0 | 0.00 | 0.00 | 0.00 | 96 | 1018.0 |
| 20260906092911 | 67 | 22 | 0.0 | 0.0 | 0.00 | 0.00 | 0.00 | 95 | 1018.0 |
| 20260906091011 | 67 | 22 | 0.0 | 0.0 | 0.00 | 0.00 | 0.00 | 96 | 1017.9 |
| 20260906090009 | 67 | 22 | 0.0 | 0.0 | 0.00 | 0.00 | 0.00 | 95 | 1017.7 |
| 20260906085012 | 67 | 22 | 0.0 | 0.0 | 0.00 | 0.00 | 0.00 | 95 | 1017.7 |
| 20260906084011 | 67 | 22 | 0.0 | 0.0 | 0.00 | 0.00 | 0.00 | 95 | 1017.7 |
| 20260906083012 | 67 | 22 | 0.0 | 0.0 | 0.00 | 0.00 | 0.00 | 95 | 1017.6 |
| 20260906082028 | 67 | 22 | 0.0 | 0.0 | 0.00 | 0.00 | 0.00 | 95 | 1017.8 |
| 20260906081110 | 67 | 22 | 0.0 | 0.0 | 0.00 | 0.00 | 0.00 | 95 | 1017.9 |
| 20260906080209 | 67 | 22 | 0.0 | 0.0 | 0.00 | 0.00 | 0.00 | 95 | 1017.7 |
| 20260906075210 | 67 | 22 | 0.0 | 0.0 | 0.00 | 0.00 | 0.00 | 95 | 1017.7 |
| 20260906074210 | 67 | 22 | 0.0 | 0.0 | 0.00 | 0.01 | 0.00 | 94 | 1017.5 |
| 20260906073226 | 67 | 25 | 0.0 | 0.0 | 0.00 | 0.01 | 0.00 | 94 | 1017.7 |
| 20260906072311 | 68 | 112 | 0.0 | 0.9 | 0.00 | 0.01 | 0.00 | 94 | 1017.7 |
| 20260906071309 | 68 | 247 | 0.0 | 0.0 | 0.00 | 0.01 | 0.00 | 93 | 1017.7 |
| 20260906071213 | 68 | 247 | 0.0 | 0.0 | 0.00 | 0.01 | 0.00 | 94 | 1017.9 |
| 20260906070209 | 68 | 247 | 0.0 | 0.0 | 0.00 | 0.01 | 0.00 | 94 | 1017.9 |
| 20260906065211 | 68 | 247 | 0.0 | 0.0 | 0.00 | 0.01 | 0.00 | 94 | 1017.9 |
| 20260906064309 | 68 | 247 | 0.0 | 0.0 | 0.00 | 0.01 | 0.00 | 93 | 1017.9 |
| 20260906064209 | 68 | 247 | 0.0 | 0.0 | 0.00 | 0.01 | 0.00 | 92 | 1017.9 |
| 20260906063213 | 68 | 247 | 0.0 | 0.0 | 0.00 | 0.01 | 0.00 | 92 | 1017.8 |
| 20260906063108 | 68 | 247 | 0.0 | 0.0 | 0.00 | 0.01 | 0.00 | 93 | 1017.7 |
| 20260906060310 | 68 | 203 | 0.0 | 0.0 | 0.00 | 0.01 | 0.00 | 93 | 1017.9 |
| 20260906055409 | 68 | 270 | 0.0 | 0.0 | 0.00 | 0.01 | 0.00 | 93 | 1018.0 |
| 20260906054411 | 68 | 270 | 0.0 | 0.0 | 0.00 | 0.01 | 0.00 | 92 | 1018.2 |
| 20260906053410 | 69 | 270 | 0.0 | 0.0 | 0.00 | 0.01 | 0.00 | 92 | 1018.5 |
| 20260906050511 | 69 | 270 | 0.0 | 0.0 | 0.00 | 0.01 | 0.00 | 91 | 1018.7 |
| 20260906045509 | 69 | 270 | 0.0 | 0.0 | 0.00 | 0.01 | 0.00 | 91 | 1018.7 |
| 20260906044510 | 69 | 270 | 0.0 | 0.0 | 0.00 | 0.01 | 0.00 | 90 | 1018.7 |
| 20260906043512 | 69 | 360 | 0.0 | 0.9 | 0.00 | 0.01 | 0.00 | 89 | 1018.7 |
| 20260906042510 | 69 | 360 | 0.0 | 0.0 | 0.00 | 0.01 | 0.00 | 90 | 1018.6 |
| 20260906041512 | 69 | 360 | 0.0 | 0.0 | 0.00 | 0.01 | 0.00 | 89 | 1018.3 |
| 20260906040510 | 69 | 360 | 0.0 | 0.0 | 0.00 | 0.01 | 0.00 | 88 | 1018.6 |
| 20260906035609 | 69 | 360 | 0.0 | 0.0 | 0.00 | 0.01 | 0.01 | 89 | 1018.7 |
| 20260906034706 | 69 | 360 | 0.0 | 0.0 | 0.00 | 0.01 | 0.01 | 88 | 1018.5 |
| 20260906034622 | 69 | 360 | 0.0 | 0.0 | 0.00 | 0.01 | 0.01 | 88 | 1018.6 |
| 20260906033708 | 70 | 360 | 0.0 | 0.0 | 0.00 | 0.01 | 0.01 | 88 | 1018.8 |
| 20260906032806 | 70 | 360 | 0.0 | 0.0 | 0.00 | 0.01 | 0.01 | 88 | 1018.8 |
| 20260906031805 | 70 | 360 | 0.0 | 0.0 | 0.00 | 0.01 | 0.01 | 87 | 1018.9 |
| 20260906030808 | 70 | 360 | 0.0 | 0.0 | 0.00 | 0.01 | 0.01 | 86 | 1018.9 |
| 20260906025808 | 70 | 360 | 0.0 | 0.0 | 0.00 | 0.01 | 0.01 | 85 | 1018.8 |
| 20260906024808 | 70 | 360 | 0.0 | 0.0 | 0.00 | 0.01 | 0.01 | 85 | 1018.8 |
| 20260906022908 | 71 | 360 | 0.0 | 0.0 | 0.00 | 0.01 | 0.01 | 84 | 1018.6 |
| 20260906021907 | 71 | 360 | 0.0 | 0.0 | 0.00 | 0.01 | 0.01 | 84 | 1018.5 |
| 20260906020908 | 71 | 360 | 0.0 | 0.0 | 0.00 | 0.01 | 0.01 | 82 | 1018.5 |
| 20260906020007 | 71 | 360 | 0.0 | 0.0 | 0.00 | 0.01 | 0.01 | 83 | 1018.5 |
| 20260906015009 | 71 | 360 | 0.0 | 0.0 | 0.00 | 0.01 | 0.01 | 82 | 1018.3 |
| 20260906014006 | 71 | 360 | 0.0 | 0.0 | 0.00 | 0.01 | 0.01 | 80 | 1018.1 |
| 20260906013007 | 72 | 360 | 0.0 | 0.0 | 0.00 | 0.01 | 0.01 | 80 | 1018.0 |
| 20260906012021 | 72 | 360 | 0.0 | 0.0 | 0.00 | 0.01 | 0.01 | 79 | 1017.7 |
| 20260906005909 | 73 | 360 | 0.0 | 0.0 | 0.00 | 0.01 | 0.01 | 78 | 1018.0 |
| 20260906005006 | 73 | 360 | 0.0 | 0.0 | 0.00 | 0.01 | 0.01 | 77 | 1017.8 |
| 20260906003106 | 73 | 360 | 0.0 | 0.0 | 0.00 | 0.01 | 0.01 | 77 | 1017.5 |
| 20260906002108 | 73 | 360 | 0.0 | 0.0 | 0.00 | 0.01 | 0.01 | 76 | 1017.5 |
| 20260906001108 | 74 | 360 | 0.0 | 0.0 | 0.00 | 0.01 | 0.01 | 76 | 1017.7 |
| 20260906000108 | 74 | 360 | 0.0 | 0.0 | 0.00 | 0.01 | 0.01 | 74 | 1017.7 |
| 20260905235108 | 75 | 360 | 0.0 | 0.0 | 0.00 | 0.01 | 0.01 | 74 | 1017.6 |
| 20260905234108 | 75 | 360 | 0.0 | 0.0 | 0.00 | 0.01 | 0.01 | 74 | 1017.4 |
| 20260905233122 | 75 | 112 | 0.0 | 0.9 | 0.00 | 0.01 | 0.01 | 74 | 1017.4 |
| 20260905231207 | 76 | 180 | 1.7 | 3.5 | 0.00 | 0.01 | 0.01 | 73 | 1017.3 |
| 20260905225306 | 77 | 112 | 0.9 | 0.9 | 0.00 | 0.01 | 0.01 | 72 | 1017.4 |
| 20260905224307 | 78 | 23 | 0.0 | 0.0 | 0.00 | 0.01 | 0.01 | 72 | 1017.4 |
| 20260905223323 | 78 | 22 | 0.0 | 0.0 | 0.00 | 0.01 | 0.01 | 71 | 1017.4 |
| 20260905223206 | 78 | 22 | 0.0 | 0.9 | 0.00 | 0.01 | 0.01 | 70 | 1017.4 |
| 20260905221305 | 78 | 180 | 0.0 | 0.0 | 0.00 | 0.01 | 0.01 | 69 | 1017.3 |
| 20260905220324 | 78 | 180 | 0.0 | 0.0 | 0.00 | 0.01 | 0.01 | 69 | 1017.4 |
| 20260905215407 | 79 | 180 | 0.0 | 0.0 | 0.00 | 0.01 | 0.01 | 69 | 1017.6 |
| 20260905213524 | 80 | 180 | 0.0 | 0.0 | 0.00 | 0.01 | 0.01 | 69 | 1017.5 |
| 20260905212606 | 80 | 180 | 0.0 | 0.0 | 0.00 | 0.01 | 0.01 | 68 | 1017.4 |
| 20260905210607 | 80 | 112 | 0.0 | 0.0 | 0.00 | 0.01 | 0.01 | 68 | 1017.5 |
| 20260905205705 | 80 | 112 | 1.7 | 3.5 | 0.00 | 0.01 | 0.01 | 67 | 1017.6 |
| 20260905204706 | 81 | 138 | 1.7 | 3.5 | 0.00 | 0.01 | 0.01 | 68 | 1017.9 |
| 20260905203705 | 82 | 143 | 3.5 | 7.0 | 0.00 | 0.01 | 0.01 | 67 | 1018.1 |
| 20260905202706 | 82 | 22 | 0.9 | 0.9 | 0.00 | 0.01 | 0.01 | 66 | 1018.3 |
| 20260905201804 | 83 | 22 | 0.0 | 0.0 | 0.00 | 0.01 | 0.01 | 67 | 1018.5 |
| 20260905200806 | 85 | 112 | 0.9 | 2.6 | 0.00 | 0.01 | 0.01 | 67 | 1018.4 |
| 20260905195807 | 85 | 180 | 0.0 | 0.0 | 0.00 | 0.01 | 0.01 | 66 | 1018.3 |
| 20260905194806 | 85 | 180 | 0.0 | 0.0 | 0.00 | 0.01 | 0.01 | 66 | 1018.1 |
| 20260905193808 | 85 | 180 | 1.7 | 1.7 | 0.00 | 0.01 | 0.01 | 66 | 1018.1 |
| 20260905192822 | 83 | 22 | 0.0 | 0.9 | 0.00 | 0.01 | 0.01 | 65 | 1017.9 |
| 20260905191809 | 83 | 22 | 0.0 | 0.9 | 0.00 | 0.01 | 0.01 | 65 | 1018.4 |
| 20260905184909 | 86 | 24 | 0.0 | 1.7 | 0.00 | 0.01 | 0.01 | 64 | 1019.0 |
| 20260905184006 | 87 | 180 | 0.0 | 0.0 | 0.00 | 0.01 | 0.01 | 65 | 1018.3 |
| 20260905183006 | 90 | 180 | 0.0 | 0.9 | 0.00 | 0.01 | 0.01 | 66 | 1018.0 |
| 20260905182105 | 94 | 22 | 0.0 | 0.0 | 0.00 | 0.01 | 0.01 | 67 | 1018.1 |
| 20260905181107 | 97 | 180 | 0.0 | 0.0 | 0.00 | 0.01 | 0.01 | 69 | 1018.0 |
| 20260905180108 | 96 | 23 | 0.9 | 2.6 | 0.00 | 0.01 | 0.01 | 70 | 1018.4 |
| 20260905175206 | 96 | 67 | 0.9 | 2.6 | 0.00 | 0.01 | 0.01 | 71 | 1018.5 |
| 20260905174207 | 96 | 82 | 0.9 | 3.5 | 0.00 | 0.01 | 0.01 | 72 | 1018.7 |
| 20260905173305 | 95 | 45 | 0.0 | 1.7 | 0.00 | 0.01 | 0.01 | 72 | 1018.7 |
| 20260905171404 | 93 | 71 | 0.9 | 1.7 | 0.00 | 0.01 | 0.01 | 75 | 1018.9 |
| 20260905170407 | 93 | 50 | 0.0 | 3.5 | 0.00 | 0.01 | 0.01 | 77 | 1019.1 |
| 20260905165504 | 92 | 54 | 0.0 | 1.7 | 0.00 | 0.01 | 0.01 | 77 | 1019.1 |
| 20260905164505 | 92 | 174 | 0.9 | 1.7 | 0.00 | 0.01 | 0.01 | 78 | 1019.5 |
| 20260905163508 | 91 | 50 | 0.9 | 1.7 | 0.00 | 0.01 | 0.01 | 80 | 1019.5 |
| 20260905162523 | 90 | 90 | 1.7 | 2.6 | 0.00 | 0.01 | 0.01 | 82 | 1019.6 |
| 20260905160606 | 90 | 118 | 0.0 | 0.9 | 0.00 | 0.01 | 0.01 | 84 | 1019.8 |
| 20260905155705 | 90 | 247 | 0.0 | 0.9 | 0.00 | 0.01 | 0.01 | 86 | 1019.9 |
| 20260905154706 | 88 | 90 | 0.0 | 0.9 | 0.00 | 0.01 | 0.01 | 87 | 1020.0 |
| 20260905153720 | 86 | 85 | 0.9 | 2.6 | 0.00 | 0.01 | 0.01 | 89 | 1020.1 |
| 20260905152706 | 84 | 180 | 0.9 | 0.9 | 0.00 | 0.01 | 0.01 | 90 | 1020.3 |
| 20260905151706 | 84 | 180 | 1.7 | 2.6 | 0.00 | 0.01 | 0.01 | 91 | 1020.3 |
| 20260905150705 | 82 | 180 | 0.9 | 1.7 | 0.00 | 0.01 | 0.01 | 92 | 1020.2 |
| 20260905145705 | 80 | 180 | 0.0 | 1.7 | 0.00 | 0.01 | 0.01 | 92 | 1020.4 |
| 20260905145622 | 79 | 180 | 1.7 | 2.6 | 0.00 | 0.01 | 0.01 | 91 | 1020.3 |
| 20260905144605 | 80 | 180 | 2.6 | 3.5 | 0.00 | 0.01 | 0.01 | 92 | 1020.3 |
| 20260905143605 | 79 | 180 | 0.0 | 0.9 | 0.00 | 0.01 | 0.01 | 93 | 1020.4 |
| 20260905142606 | 78 | 180 | 0.9 | 1.7 | 0.00 | 0.01 | 0.01 | 94 | 1020.5 |
| 20260905141705 | 78 | 180 | 1.7 | 1.7 | 0.00 | 0.01 | 0.01 | 95 | 1020.4 |
| 20260905140707 | 77 | 180 | 0.0 | 1.7 | 0.00 | 0.01 | 0.01 | 96 | 1020.7 |
| 20260905135706 | 76 | 165 | 0.9 | 1.7 | 0.00 | 0.01 | 0.01 | 97 | 1020.8 |
| 20260905134805 | 75 | 180 | 0.0 | 0.0 | 0.00 | 0.01 | 0.01 | 97 | 1020.8 |
| 20260905133805 | 75 | 180 | 0.9 | 1.7 | 0.00 | 0.01 | 0.01 | 97 | 1020.9 |
| 20260905132806 | 74 | 180 | 0.9 | 2.6 | 0.00 | 0.01 | 0.01 | 97 | 1021.0 |
| 20260905131806 | 72 | 180 | 1.7 | 2.6 | 0.00 | 0.01 | 0.01 | 97 | 1021.1 |
| 20260905130804 | 71 | 22 | 0.0 | 0.0 | 0.00 | 0.01 | 0.01 | 97 | 1021.0 |
| 20260905130708 | 71 | 22 | 0.0 | 0.0 | 0.00 | 0.01 | 0.01 | 96 | 1021.0 |
| 20260905125805 | 71 | 22 | 0.0 | 0.0 | 0.00 | 0.01 | 0.01 | 97 | 1021.0 |
| 20260905124805 | 71 | 22 | 0.0 | 0.0 | 0.00 | 0.01 | 0.01 | 97 | 1020.9 |
| 20260905123808 | 71 | 22 | 0.0 | 0.0 | 0.00 | 0.01 | 0.01 | 97 | 1020.9 |
| 20260905122808 | 70 | 22 | 0.0 | 0.0 | 0.00 | 0.01 | 0.01 | 96 | 1020.8 |
| 20260905121805 | 70 | 22 | 0.0 | 0.0 | 0.00 | 0.01 | 0.01 | 97 | 1020.8 |
| 20260905120904 | 69 | 22 | 0.0 | 0.0 | 0.00 | 0.01 | 0.01 | 97 | 1020.7 |
| 20260905115906 | 68 | 22 | 0.0 | 0.0 | 0.00 | 0.01 | 0.01 | 97 | 1020.7 |
| 20260905113906 | 67 | 22 | 0.0 | 0.0 | 0.00 | 0.01 | 0.01 | 97 | 1020.5 |
| 20260905113004 | 67 | 22 | 0.0 | 0.0 | 0.00 | 0.01 | 0.01 | 96 | 1020.3 |
| 20260905112006 | 67 | 22 | 0.0 | 0.0 | 0.00 | 0.01 | 0.01 | 95 | 1020.1 |
| 20260905111005 | 67 | 22 | 0.0 | 0.0 | 0.00 | 0.01 | 0.01 | 96 | 1020.0 |